sensor_id;sensor_type;location;lat;lon;timestamp;P1;durP1;ratioP1;P2;durP2;ratioP2
58637;SDS011;54976;51.510;7.522;2023-02-15T00:00:48;26.80;;;14.35;;
58637;SDS011;54976;51.510;7.522;2023-02-15T00:03:49;25.63;;;13.55;;
58637;SDS011;54976;51.510;7.522;2023-02-15T00:06:50;30.13;;;12.98;;
58637;SDS011;54976;51.510;7.522;2023-02-15T00:09:51;28.77;;;13.90;;
58637;SDS011;54976;51.510;7.522;2023-02-15T00:12:51;31.17;;;13.15;;
58637;SDS011;54976;51.510;7.522;2023-02-15T00:15:52;27.20;;;13.68;;
58637;SDS011;54976;51.510;7.522;2023-02-15T00:18:52;26.85;;;14.43;;
58637;SDS011;54976;51.510;7.522;2023-02-15T00:21:53;27.58;;;13.55;;
58637;SDS011;54976;51.510;7.522;2023-02-15T00:24:54;28.13;;;13.48;;
58637;SDS011;54976;51.510;7.522;2023-02-15T00:27:54;28.45;;;13.65;;
58637;SDS011;54976;51.510;7.522;2023-02-15T00:31:01;25.13;;;12.85;;
58637;SDS011;54976;51.510;7.522;2023-02-15T00:37:12;28.83;;;13.95;;
58637;SDS011;54976;51.510;7.522;2023-02-15T00:40:13;27.35;;;14.13;;
58637;SDS011;54976;51.510;7.522;2023-02-15T00:43:13;28.42;;;13.55;;
58637;SDS011;54976;51.510;7.522;2023-02-15T00:46:14;28.13;;;14.52;;
58637;SDS011;54976;51.510;7.522;2023-02-15T00:49:14;30.25;;;14.52;;
58637;SDS011;54976;51.510;7.522;2023-02-15T00:52:15;28.23;;;14.65;;
58637;SDS011;54976;51.510;7.522;2023-02-15T00:55:16;26.48;;;14.23;;
58637;SDS011;54976;51.510;7.522;2023-02-15T00:58:16;31.13;;;14.63;;
58637;SDS011;54976;51.510;7.522;2023-02-15T01:01:18;31.60;;;14.32;;
58637;SDS011;54976;51.510;7.522;2023-02-15T01:04:20;30.10;;;14.13;;
58637;SDS011;54976;51.510;7.522;2023-02-15T01:07:21;31.25;;;14.65;;
58637;SDS011;54976;51.510;7.522;2023-02-15T01:10:21;33.97;;;14.15;;
58637;SDS011;54976;51.510;7.522;2023-02-15T01:13:23;36.95;;;16.15;;
58637;SDS011;54976;51.510;7.522;2023-02-15T01:16:24;33.90;;;15.82;;
58637;SDS011;54976;51.510;7.522;2023-02-15T01:19:26;39.33;;;16.70;;
58637;SDS011;54976;51.510;7.522;2023-02-15T01:22:27;35.47;;;14.90;;
58637;SDS011;54976;51.510;7.522;2023-02-15T01:25:27;32.47;;;15.65;;
58637;SDS011;54976;51.510;7.522;2023-02-15T01:28:28;33.10;;;15.73;;
58637;SDS011;54976;51.510;7.522;2023-02-15T01:31:29;29.75;;;15.07;;
58637;SDS011;54976;51.510;7.522;2023-02-15T01:34:29;35.65;;;15.88;;
58637;SDS011;54976;51.510;7.522;2023-02-15T01:37:30;35.78;;;15.82;;
58637;SDS011;54976;51.510;7.522;2023-02-15T01:40:32;32.22;;;15.77;;
58637;SDS011;54976;51.510;7.522;2023-02-15T01:43:39;33.50;;;15.43;;
58637;SDS011;54976;51.510;7.522;2023-02-15T01:46:43;33.15;;;16.52;;
58637;SDS011;54976;51.510;7.522;2023-02-15T01:49:54;32.30;;;15.82;;
58637;SDS011;54976;51.510;7.522;2023-02-15T01:56:20;35.40;;;15.85;;
58637;SDS011;54976;51.510;7.522;2023-02-15T01:59:23;39.40;;;17.17;;
58637;SDS011;54976;51.510;7.522;2023-02-15T02:02:25;36.92;;;17.40;;
58637;SDS011;54976;51.510;7.522;2023-02-15T02:05:27;43.38;;;18.23;;
58637;SDS011;54976;51.510;7.522;2023-02-15T02:08:28;37.30;;;17.75;;
58637;SDS011;54976;51.510;7.522;2023-02-15T02:11:30;37.58;;;17.05;;
58637;SDS011;54976;51.510;7.522;2023-02-15T02:14:31;35.78;;;17.90;;
58637;SDS011;54976;51.510;7.522;2023-02-15T02:34:28;59.40;;;25.02;;
58637;SDS011;54976;51.510;7.522;2023-02-15T02:50:25;40.80;;;18.17;;
58637;SDS011;54976;51.510;7.522;2023-02-15T02:53:28;36.72;;;17.83;;
58637;SDS011;54976;51.510;7.522;2023-02-15T02:56:38;33.90;;;17.33;;
58637;SDS011;54976;51.510;7.522;2023-02-15T02:59:43;39.22;;;18.27;;
58637;SDS011;54976;51.510;7.522;2023-02-15T03:02:46;37.53;;;18.00;;
58637;SDS011;54976;51.510;7.522;2023-02-15T03:08:56;34.83;;;17.35;;
58637;SDS011;54976;51.510;7.522;2023-02-15T03:12:03;32.45;;;17.15;;
58637;SDS011;54976;51.510;7.522;2023-02-15T03:18:15;33.45;;;17.20;;
58637;SDS011;54976;51.510;7.522;2023-02-15T03:21:21;35.38;;;18.77;;
58637;SDS011;54976;51.510;7.522;2023-02-15T03:27:58;37.00;;;18.42;;
58637;SDS011;54976;51.510;7.522;2023-02-15T03:31:04;33.72;;;18.35;;
58637;SDS011;54976;51.510;7.522;2023-02-15T03:34:07;40.92;;;18.92;;
58637;SDS011;54976;51.510;7.522;2023-02-15T03:46:54;40.83;;;19.20;;
58637;SDS011;54976;51.510;7.522;2023-02-15T03:50:05;38.55;;;18.27;;
58637;SDS011;54976;51.510;7.522;2023-02-15T03:53:27;38.03;;;18.38;;
58637;SDS011;54976;51.510;7.522;2023-02-15T03:56:28;39.45;;;19.10;;
58637;SDS011;54976;51.510;7.522;2023-02-15T03:59:28;38.92;;;18.85;;
58637;SDS011;54976;51.510;7.522;2023-02-15T04:05:57;37.90;;;18.45;;
58637;SDS011;54976;51.510;7.522;2023-02-15T04:08:59;41.35;;;18.52;;
58637;SDS011;54976;51.510;7.522;2023-02-15T04:12:19;40.35;;;18.45;;
58637;SDS011;54976;51.510;7.522;2023-02-15T04:15:19;41.47;;;19.17;;
58637;SDS011;54976;51.510;7.522;2023-02-15T04:18:39;39.08;;;19.30;;
58637;SDS011;54976;51.510;7.522;2023-02-15T04:22:00;48.30;;;20.92;;
58637;SDS011;54976;51.510;7.522;2023-02-15T04:25:19;38.08;;;18.02;;
58637;SDS011;54976;51.510;7.522;2023-02-15T04:28:20;41.03;;;18.42;;
58637;SDS011;54976;51.510;7.522;2023-02-15T04:31:20;40.42;;;19.05;;
58637;SDS011;54976;51.510;7.522;2023-02-15T04:34:22;41.65;;;18.67;;
58637;SDS011;54976;51.510;7.522;2023-02-15T04:37:22;40.97;;;18.83;;
58637;SDS011;54976;51.510;7.522;2023-02-15T04:40:23;39.85;;;19.42;;
58637;SDS011;54976;51.510;7.522;2023-02-15T04:43:23;48.83;;;19.80;;
58637;SDS011;54976;51.510;7.522;2023-02-15T04:46:24;38.10;;;18.88;;
58637;SDS011;54976;51.510;7.522;2023-02-15T04:49:25;41.38;;;19.80;;
58637;SDS011;54976;51.510;7.522;2023-02-15T04:52:26;43.40;;;20.20;;
58637;SDS011;54976;51.510;7.522;2023-02-15T04:55:26;46.25;;;19.90;;
58637;SDS011;54976;51.510;7.522;2023-02-15T04:58:27;38.90;;;18.45;;
58637;SDS011;54976;51.510;7.522;2023-02-15T05:01:27;47.17;;;19.77;;
58637;SDS011;54976;51.510;7.522;2023-02-15T05:04:28;42.70;;;19.15;;
58637;SDS011;54976;51.510;7.522;2023-02-15T05:07:29;46.55;;;19.77;;
58637;SDS011;54976;51.510;7.522;2023-02-15T05:10:29;46.28;;;19.60;;
58637;SDS011;54976;51.510;7.522;2023-02-15T05:13:30;42.78;;;19.35;;
58637;SDS011;54976;51.510;7.522;2023-02-15T05:16:30;48.20;;;19.90;;
58637;SDS011;54976;51.510;7.522;2023-02-15T05:19:31;53.15;;;22.95;;
58637;SDS011;54976;51.510;7.522;2023-02-15T05:22:32;50.58;;;20.98;;
58637;SDS011;54976;51.510;7.522;2023-02-15T05:25:32;44.45;;;18.90;;
58637;SDS011;54976;51.510;7.522;2023-02-15T05:28:51;50.00;;;20.30;;
58637;SDS011;54976;51.510;7.522;2023-02-15T05:31:52;42.90;;;19.48;;
58637;SDS011;54976;51.510;7.522;2023-02-15T05:34:52;49.13;;;21.13;;
58637;SDS011;54976;51.510;7.522;2023-02-15T05:37:53;52.97;;;20.70;;
58637;SDS011;54976;51.510;7.522;2023-02-15T05:40:54;50.03;;;22.52;;
58637;SDS011;54976;51.510;7.522;2023-02-15T05:43:55;48.20;;;21.90;;
58637;SDS011;54976;51.510;7.522;2023-02-15T05:46:56;49.67;;;21.52;;
58637;SDS011;54976;51.510;7.522;2023-02-15T05:49:57;45.78;;;21.23;;
58637;SDS011;54976;51.510;7.522;2023-02-15T05:52:57;46.50;;;20.75;;
58637;SDS011;54976;51.510;7.522;2023-02-15T05:55:58;59.05;;;21.90;;
58637;SDS011;54976;51.510;7.522;2023-02-15T05:58:59;47.33;;;21.15;;
58637;SDS011;54976;51.510;7.522;2023-02-15T06:02:00;45.47;;;20.60;;
58637;SDS011;54976;51.510;7.522;2023-02-15T06:05:00;50.30;;;21.23;;
58637;SDS011;54976;51.510;7.522;2023-02-15T06:08:01;47.25;;;20.92;;
58637;SDS011;54976;51.510;7.522;2023-02-15T06:11:02;56.22;;;22.10;;
58637;SDS011;54976;51.510;7.522;2023-02-15T06:14:04;47.58;;;21.27;;
58637;SDS011;54976;51.510;7.522;2023-02-15T06:17:04;47.97;;;21.02;;
58637;SDS011;54976;51.510;7.522;2023-02-15T06:20:05;45.78;;;21.88;;
58637;SDS011;54976;51.510;7.522;2023-02-15T06:23:06;44.38;;;19.40;;
58637;SDS011;54976;51.510;7.522;2023-02-15T06:26:07;44.05;;;20.45;;
58637;SDS011;54976;51.510;7.522;2023-02-15T06:29:07;44.63;;;20.10;;
58637;SDS011;54976;51.510;7.522;2023-02-15T06:32:08;46.30;;;21.02;;
58637;SDS011;54976;51.510;7.522;2023-02-15T06:35:08;42.70;;;18.98;;
58637;SDS011;54976;51.510;7.522;2023-02-15T06:38:09;41.53;;;20.33;;
58637;SDS011;54976;51.510;7.522;2023-02-15T06:41:10;41.75;;;18.98;;
58637;SDS011;54976;51.510;7.522;2023-02-15T06:44:10;40.08;;;19.30;;
58637;SDS011;54976;51.510;7.522;2023-02-15T06:47:11;43.03;;;19.25;;
58637;SDS011;54976;51.510;7.522;2023-02-15T06:50:11;46.10;;;18.45;;
58637;SDS011;54976;51.510;7.522;2023-02-15T06:53:12;44.78;;;19.27;;
58637;SDS011;54976;51.510;7.522;2023-02-15T06:56:13;34.35;;;16.73;;
58637;SDS011;54976;51.510;7.522;2023-02-15T06:59:13;37.70;;;17.67;;
58637;SDS011;54976;51.510;7.522;2023-02-15T07:02:14;43.78;;;18.52;;
58637;SDS011;54976;51.510;7.522;2023-02-15T07:05:14;37.13;;;16.98;;
58637;SDS011;54976;51.510;7.522;2023-02-15T07:08:15;36.10;;;16.85;;
58637;SDS011;54976;51.510;7.522;2023-02-15T07:11:16;43.63;;;17.02;;
58637;SDS011;54976;51.510;7.522;2023-02-15T07:14:35;36.38;;;17.40;;
58637;SDS011;54976;51.510;7.522;2023-02-15T07:17:36;38.35;;;16.80;;
58637;SDS011;54976;51.510;7.522;2023-02-15T07:20:37;37.88;;;16.77;;
58637;SDS011;54976;51.510;7.522;2023-02-15T07:23:38;37.03;;;17.48;;
58637;SDS011;54976;51.510;7.522;2023-02-15T07:26:39;37.80;;;16.20;;
58637;SDS011;54976;51.510;7.522;2023-02-15T07:29:40;41.40;;;17.23;;
58637;SDS011;54976;51.510;7.522;2023-02-15T07:32:40;34.00;;;16.00;;
58637;SDS011;54976;51.510;7.522;2023-02-15T07:36:02;33.70;;;14.75;;
58637;SDS011;54976;51.510;7.522;2023-02-15T07:39:04;48.88;;;16.90;;
58637;SDS011;54976;51.510;7.522;2023-02-15T07:42:05;38.70;;;15.90;;
58637;SDS011;54976;51.510;7.522;2023-02-15T07:45:05;37.95;;;17.17;;
58637;SDS011;54976;51.510;7.522;2023-02-15T07:48:06;41.72;;;16.42;;
58637;SDS011;54976;51.510;7.522;2023-02-15T07:51:08;34.60;;;15.02;;
58637;SDS011;54976;51.510;7.522;2023-02-15T07:54:09;36.13;;;15.77;;
58637;SDS011;54976;51.510;7.522;2023-02-15T07:57:10;35.70;;;16.23;;
58637;SDS011;54976;51.510;7.522;2023-02-15T08:00:11;32.65;;;15.93;;
58637;SDS011;54976;51.510;7.522;2023-02-15T08:03:13;34.92;;;16.05;;
58637;SDS011;54976;51.510;7.522;2023-02-15T08:06:13;37.78;;;15.32;;
58637;SDS011;54976;51.510;7.522;2023-02-15T08:09:14;36.35;;;16.30;;
58637;SDS011;54976;51.510;7.522;2023-02-15T08:12:15;31.65;;;15.93;;
58637;SDS011;54976;51.510;7.522;2023-02-15T08:15:16;32.47;;;15.45;;
58637;SDS011;54976;51.510;7.522;2023-02-15T08:18:16;34.65;;;15.48;;
58637;SDS011;54976;51.510;7.522;2023-02-15T08:21:17;29.48;;;15.32;;
58637;SDS011;54976;51.510;7.522;2023-02-15T08:24:19;33.58;;;15.13;;
58637;SDS011;54976;51.510;7.522;2023-02-15T08:27:22;39.38;;;14.60;;
58637;SDS011;54976;51.510;7.522;2023-02-15T08:30:26;35.92;;;15.30;;
58637;SDS011;54976;51.510;7.522;2023-02-15T08:33:27;30.90;;;14.00;;
58637;SDS011;54976;51.510;7.522;2023-02-15T08:36:28;29.08;;;13.48;;
58637;SDS011;54976;51.510;7.522;2023-02-15T08:39:31;39.58;;;14.98;;
58637;SDS011;54976;51.510;7.522;2023-02-15T08:42:35;40.70;;;14.70;;
58637;SDS011;54976;51.510;7.522;2023-02-15T08:45:35;25.98;;;13.60;;
58637;SDS011;54976;51.510;7.522;2023-02-15T08:48:36;31.85;;;15.45;;
58637;SDS011;54976;51.510;7.522;2023-02-15T08:51:37;30.27;;;13.82;;
58637;SDS011;54976;51.510;7.522;2023-02-15T08:54:38;33.95;;;13.52;;
58637;SDS011;54976;51.510;7.522;2023-02-15T08:57:39;29.05;;;13.85;;
58637;SDS011;54976;51.510;7.522;2023-02-15T09:00:44;26.92;;;14.98;;
58637;SDS011;54976;51.510;7.522;2023-02-15T09:03:45;30.60;;;14.18;;
58637;SDS011;54976;51.510;7.522;2023-02-15T09:06:48;28.20;;;12.77;;
58637;SDS011;54976;51.510;7.522;2023-02-15T09:09:49;25.33;;;13.63;;
58637;SDS011;54976;51.510;7.522;2023-02-15T09:12:50;29.95;;;14.43;;
58637;SDS011;54976;51.510;7.522;2023-02-15T09:15:51;27.10;;;14.32;;
58637;SDS011;54976;51.510;7.522;2023-02-15T09:19:00;23.20;;;13.10;;
58637;SDS011;54976;51.510;7.522;2023-02-15T09:22:01;24.20;;;13.85;;
58637;SDS011;54976;51.510;7.522;2023-02-15T09:25:02;28.08;;;14.13;;
58637;SDS011;54976;51.510;7.522;2023-02-15T09:28:02;25.90;;;13.30;;
58637;SDS011;54976;51.510;7.522;2023-02-15T09:34:10;22.77;;;13.15;;
58637;SDS011;54976;51.510;7.522;2023-02-15T09:37:12;25.95;;;12.18;;
58637;SDS011;54976;51.510;7.522;2023-02-15T09:40:13;20.50;;;12.65;;
58637;SDS011;54976;51.510;7.522;2023-02-15T09:43:26;23.98;;;12.85;;
58637;SDS011;54976;51.510;7.522;2023-02-15T10:07:42;20.38;;;11.57;;
58637;SDS011;54976;51.510;7.522;2023-02-15T10:10:48;20.65;;;12.27;;
58637;SDS011;54976;51.510;7.522;2023-02-15T10:25:16;19.95;;;10.73;;
58637;SDS011;54976;51.510;7.522;2023-02-15T10:41:47;22.20;;;10.63;;
58637;SDS011;54976;51.510;7.522;2023-02-15T10:51:39;16.58;;;9.73;;
58637;SDS011;54976;51.510;7.522;2023-02-15T10:58:09;21.48;;;9.75;;
58637;SDS011;54976;51.510;7.522;2023-02-15T11:01:56;17.15;;;9.70;;
58637;SDS011;54976;51.510;7.522;2023-02-15T11:08:34;17.95;;;9.57;;
58637;SDS011;54976;51.510;7.522;2023-02-15T11:11:39;19.42;;;9.70;;
58637;SDS011;54976;51.510;7.522;2023-02-15T11:21:28;20.98;;;9.77;;
58637;SDS011;54976;51.510;7.522;2023-02-15T11:24:43;19.27;;;9.32;;
58637;SDS011;54976;51.510;7.522;2023-02-15T11:27:46;18.08;;;8.43;;
58637;SDS011;54976;51.510;7.522;2023-02-15T11:30:50;18.00;;;8.57;;
58637;SDS011;54976;51.510;7.522;2023-02-15T11:33:58;14.98;;;7.22;;
58637;SDS011;54976;51.510;7.522;2023-02-15T11:37:07;15.88;;;7.93;;
58637;SDS011;54976;51.510;7.522;2023-02-15T11:43:36;13.35;;;7.07;;
58637;SDS011;54976;51.510;7.522;2023-02-15T11:46:41;14.75;;;7.00;;
58637;SDS011;54976;51.510;7.522;2023-02-15T11:49:42;25.45;;;7.07;;
58637;SDS011;54976;51.510;7.522;2023-02-15T11:52:45;17.95;;;8.35;;
58637;SDS011;54976;51.510;7.522;2023-02-15T11:55:46;17.23;;;8.13;;
58637;SDS011;54976;51.510;7.522;2023-02-15T12:01:49;13.20;;;6.95;;
58637;SDS011;54976;51.510;7.522;2023-02-15T12:05:00;12.15;;;6.97;;
58637;SDS011;54976;51.510;7.522;2023-02-15T12:08:08;12.33;;;7.27;;
58637;SDS011;54976;51.510;7.522;2023-02-15T12:11:17;13.15;;;7.28;;
58637;SDS011;54976;51.510;7.522;2023-02-15T12:14:22;13.18;;;7.20;;
58637;SDS011;54976;51.510;7.522;2023-02-15T12:17:23;13.32;;;6.88;;
58637;SDS011;54976;51.510;7.522;2023-02-15T12:20:30;12.05;;;6.32;;
58637;SDS011;54976;51.510;7.522;2023-02-15T12:23:32;10.00;;;6.53;;
58637;SDS011;54976;51.510;7.522;2023-02-15T12:26:34;11.70;;;7.00;;
58637;SDS011;54976;51.510;7.522;2023-02-15T12:29:39;12.02;;;5.93;;
58637;SDS011;54976;51.510;7.522;2023-02-15T12:32:47;11.63;;;6.28;;
58637;SDS011;54976;51.510;7.522;2023-02-15T12:35:57;9.48;;;5.47;;
58637;SDS011;54976;51.510;7.522;2023-02-15T12:42:16;12.07;;;6.20;;
58637;SDS011;54976;51.510;7.522;2023-02-15T12:45:29;14.35;;;6.40;;
58637;SDS011;54976;51.510;7.522;2023-02-15T12:48:32;11.02;;;6.55;;
58637;SDS011;54976;51.510;7.522;2023-02-15T12:51:47;11.15;;;6.38;;
58637;SDS011;54976;51.510;7.522;2023-02-15T12:54:52;11.25;;;6.25;;
58637;SDS011;54976;51.510;7.522;2023-02-15T13:07:29;11.60;;;6.30;;
58637;SDS011;54976;51.510;7.522;2023-02-15T13:10:36;10.95;;;5.63;;
58637;SDS011;54976;51.510;7.522;2023-02-15T13:13:57;12.73;;;6.30;;
58637;SDS011;54976;51.510;7.522;2023-02-15T13:17:00;10.75;;;5.85;;
58637;SDS011;54976;51.510;7.522;2023-02-15T13:20:05;10.68;;;5.05;;
58637;SDS011;54976;51.510;7.522;2023-02-15T13:23:22;17.65;;;6.43;;
58637;SDS011;54976;51.510;7.522;2023-02-15T13:26:29;9.98;;;5.47;;
58637;SDS011;54976;51.510;7.522;2023-02-15T13:29:33;12.60;;;6.63;;
58637;SDS011;54976;51.510;7.522;2023-02-15T13:32:37;14.85;;;6.55;;
58637;SDS011;54976;51.510;7.522;2023-02-15T13:42:27;15.70;;;6.80;;
58637;SDS011;54976;51.510;7.522;2023-02-15T13:58:42;16.60;;;6.60;;
58637;SDS011;54976;51.510;7.522;2023-02-15T14:05:23;11.23;;;6.60;;
58637;SDS011;54976;51.510;7.522;2023-02-15T14:15:35;13.23;;;6.95;;
58637;SDS011;54976;51.510;7.522;2023-02-15T14:18:48;13.00;;;7.22;;
58637;SDS011;54976;51.510;7.522;2023-02-15T14:22:09;12.00;;;6.63;;
58637;SDS011;54976;51.510;7.522;2023-02-15T14:25:25;18.05;;;7.70;;
58637;SDS011;54976;51.510;7.522;2023-02-15T14:31:47;13.85;;;7.63;;
58637;SDS011;54976;51.510;7.522;2023-02-15T14:34:52;14.77;;;7.95;;
58637;SDS011;54976;51.510;7.522;2023-02-15T14:48:09;13.40;;;7.10;;
58637;SDS011;54976;51.510;7.522;2023-02-15T14:51:38;13.98;;;7.97;;
58637;SDS011;54976;51.510;7.522;2023-02-15T14:57:57;17.80;;;7.97;;
58637;SDS011;54976;51.510;7.522;2023-02-15T15:01:08;16.65;;;8.07;;
58637;SDS011;54976;51.510;7.522;2023-02-15T15:04:14;16.23;;;7.90;;
58637;SDS011;54976;51.510;7.522;2023-02-15T15:10:48;15.73;;;7.93;;
58637;SDS011;54976;51.510;7.522;2023-02-15T15:14:07;14.35;;;7.10;;
58637;SDS011;54976;51.510;7.522;2023-02-15T15:17:12;14.00;;;7.43;;
58637;SDS011;54976;51.510;7.522;2023-02-15T15:23:41;17.25;;;7.47;;
58637;SDS011;54976;51.510;7.522;2023-02-15T15:26:44;16.45;;;7.90;;
58637;SDS011;54976;51.510;7.522;2023-02-15T15:29:50;14.75;;;7.88;;
58637;SDS011;54976;51.510;7.522;2023-02-15T15:39:47;17.35;;;8.30;;
58637;SDS011;54976;51.510;7.522;2023-02-15T15:49:12;18.23;;;8.55;;
58637;SDS011;54976;51.510;7.522;2023-02-15T15:52:19;14.20;;;7.65;;
58637;SDS011;54976;51.510;7.522;2023-02-15T15:55:22;16.00;;;8.10;;
58637;SDS011;54976;51.510;7.522;2023-02-15T15:58:24;15.38;;;8.02;;
58637;SDS011;54976;51.510;7.522;2023-02-15T16:01:26;19.63;;;8.57;;
58637;SDS011;54976;51.510;7.522;2023-02-15T16:04:29;17.08;;;8.25;;
58637;SDS011;54976;51.510;7.522;2023-02-15T16:07:32;16.23;;;8.00;;
58637;SDS011;54976;51.510;7.522;2023-02-15T16:10:32;16.52;;;7.95;;
58637;SDS011;54976;51.510;7.522;2023-02-15T16:13:35;16.15;;;8.18;;
58637;SDS011;54976;51.510;7.522;2023-02-15T16:16:36;18.15;;;7.78;;
58637;SDS011;54976;51.510;7.522;2023-02-15T16:19:40;18.35;;;7.95;;
58637;SDS011;54976;51.510;7.522;2023-02-15T16:22:42;16.77;;;8.13;;
58637;SDS011;54976;51.510;7.522;2023-02-15T16:28:47;21.98;;;8.30;;
58637;SDS011;54976;51.510;7.522;2023-02-15T16:35:11;20.02;;;8.75;;
58637;SDS011;54976;51.510;7.522;2023-02-15T16:38:14;18.48;;;9.05;;
58637;SDS011;54976;51.510;7.522;2023-02-15T16:41:20;19.50;;;8.65;;
58637;SDS011;54976;51.510;7.522;2023-02-15T16:44:27;20.45;;;10.13;;
58637;SDS011;54976;51.510;7.522;2023-02-15T16:47:33;21.25;;;8.57;;
58637;SDS011;54976;51.510;7.522;2023-02-15T16:50:39;24.45;;;8.48;;
58637;SDS011;54976;51.510;7.522;2023-02-15T16:53:46;23.30;;;9.02;;
58637;SDS011;54976;51.510;7.522;2023-02-15T16:56:48;19.17;;;9.00;;
58637;SDS011;54976;51.510;7.522;2023-02-15T16:59:49;21.95;;;9.48;;
58637;SDS011;54976;51.510;7.522;2023-02-15T17:06:00;16.20;;;8.57;;
58637;SDS011;54976;51.510;7.522;2023-02-15T17:09:03;19.17;;;9.40;;
58637;SDS011;54976;51.510;7.522;2023-02-15T17:12:35;21.00;;;8.40;;
58637;SDS011;54976;51.510;7.522;2023-02-15T17:18:59;19.70;;;8.90;;
58637;SDS011;54976;51.510;7.522;2023-02-15T17:22:03;21.30;;;8.27;;
58637;SDS011;54976;51.510;7.522;2023-02-15T17:25:14;24.70;;;8.07;;
58637;SDS011;54976;51.510;7.522;2023-02-15T17:28:21;18.40;;;8.93;;
58637;SDS011;54976;51.510;7.522;2023-02-15T17:31:25;23.92;;;9.10;;
58637;SDS011;54976;51.510;7.522;2023-02-15T17:37:48;24.38;;;9.30;;
58637;SDS011;54976;51.510;7.522;2023-02-15T17:40:50;23.80;;;7.80;;
58637;SDS011;54976;51.510;7.522;2023-02-15T17:43:50;25.23;;;9.32;;
58637;SDS011;54976;51.510;7.522;2023-02-15T17:46:51;20.88;;;9.35;;
58637;SDS011;54976;51.510;7.522;2023-02-15T17:49:52;21.33;;;8.13;;
58637;SDS011;54976;51.510;7.522;2023-02-15T17:52:54;23.38;;;8.23;;
58637;SDS011;54976;51.510;7.522;2023-02-15T17:55:55;17.77;;;8.68;;
58637;SDS011;54976;51.510;7.522;2023-02-15T17:58:56;20.10;;;8.73;;
58637;SDS011;54976;51.510;7.522;2023-02-15T18:01:56;21.85;;;8.52;;
58637;SDS011;54976;51.510;7.522;2023-02-15T18:05:16;17.42;;;8.73;;
58637;SDS011;54976;51.510;7.522;2023-02-15T18:08:35;17.25;;;9.10;;
58637;SDS011;54976;51.510;7.522;2023-02-15T18:11:54;18.30;;;7.97;;
58637;SDS011;54976;51.510;7.522;2023-02-15T18:14:56;17.48;;;8.68;;
58637;SDS011;54976;51.510;7.522;2023-02-15T18:17:57;19.70;;;8.75;;
58637;SDS011;54976;51.510;7.522;2023-02-15T18:20:58;20.70;;;9.07;;
58637;SDS011;54976;51.510;7.522;2023-02-15T18:23:58;14.93;;;8.45;;
58637;SDS011;54976;51.510;7.522;2023-02-15T18:26:59;23.15;;;9.38;;
58637;SDS011;54976;51.510;7.522;2023-02-15T18:30:00;19.70;;;9.43;;
58637;SDS011;54976;51.510;7.522;2023-02-15T18:33:00;19.30;;;9.82;;
58637;SDS011;54976;51.510;7.522;2023-02-15T18:36:02;21.95;;;10.27;;
58637;SDS011;54976;51.510;7.522;2023-02-15T18:39:05;23.88;;;9.80;;
58637;SDS011;54976;51.510;7.522;2023-02-15T18:45:30;24.70;;;10.27;;
58637;SDS011;54976;51.510;7.522;2023-02-15T18:48:35;20.05;;;10.00;;
58637;SDS011;54976;51.510;7.522;2023-02-15T18:51:35;21.70;;;9.48;;
58637;SDS011;54976;51.510;7.522;2023-02-15T18:54:39;21.13;;;9.82;;
58637;SDS011;54976;51.510;7.522;2023-02-15T18:57:40;22.15;;;10.50;;
58637;SDS011;54976;51.510;7.522;2023-02-15T19:00:43;24.45;;;11.52;;
58637;SDS011;54976;51.510;7.522;2023-02-15T19:03:45;22.50;;;10.55;;
58637;SDS011;54976;51.510;7.522;2023-02-15T19:06:47;22.23;;;10.40;;
58637;SDS011;54976;51.510;7.522;2023-02-15T19:09:49;23.63;;;10.13;;
58637;SDS011;54976;51.510;7.522;2023-02-15T19:12:53;26.27;;;10.80;;
58637;SDS011;54976;51.510;7.522;2023-02-15T19:15:54;27.13;;;10.98;;
58637;SDS011;54976;51.510;7.522;2023-02-15T19:18:55;21.45;;;10.88;;
58637;SDS011;54976;51.510;7.522;2023-02-15T19:21:56;21.55;;;11.20;;
58637;SDS011;54976;51.510;7.522;2023-02-15T19:24:57;27.05;;;11.20;;
58637;SDS011;54976;51.510;7.522;2023-02-15T19:27:59;21.02;;;10.85;;
58637;SDS011;54976;51.510;7.522;2023-02-15T19:31:08;22.48;;;10.30;;
58637;SDS011;54976;51.510;7.522;2023-02-15T19:34:14;25.30;;;11.27;;
58637;SDS011;54976;51.510;7.522;2023-02-15T19:37:22;21.90;;;11.23;;
58637;SDS011;54976;51.510;7.522;2023-02-15T19:40:26;24.35;;;11.52;;
58637;SDS011;54976;51.510;7.522;2023-02-15T19:43:31;23.70;;;11.18;;
58637;SDS011;54976;51.510;7.522;2023-02-15T19:46:33;23.65;;;12.18;;
58637;SDS011;54976;51.510;7.522;2023-02-15T19:49:35;22.70;;;11.35;;
58637;SDS011;54976;51.510;7.522;2023-02-15T19:52:36;27.08;;;12.05;;
58637;SDS011;54976;51.510;7.522;2023-02-15T19:55:37;24.95;;;12.57;;
58637;SDS011;54976;51.510;7.522;2023-02-15T19:58:37;27.65;;;13.13;;
58637;SDS011;54976;51.510;7.522;2023-02-15T20:01:38;23.60;;;12.23;;
58637;SDS011;54976;51.510;7.522;2023-02-15T20:04:39;25.55;;;12.32;;
58637;SDS011;54976;51.510;7.522;2023-02-15T20:07:41;29.98;;;13.75;;
58637;SDS011;54976;51.510;7.522;2023-02-15T20:10:43;30.95;;;12.73;;
58637;SDS011;54976;51.510;7.522;2023-02-15T20:13:44;26.35;;;12.98;;
58637;SDS011;54976;51.510;7.522;2023-02-15T20:16:45;27.67;;;13.48;;
58637;SDS011;54976;51.510;7.522;2023-02-15T20:19:46;28.98;;;13.50;;
58637;SDS011;54976;51.510;7.522;2023-02-15T20:22:47;25.88;;;12.70;;
58637;SDS011;54976;51.510;7.522;2023-02-15T20:25:50;28.95;;;13.55;;
58637;SDS011;54976;51.510;7.522;2023-02-15T20:28:51;26.98;;;13.65;;
58637;SDS011;54976;51.510;7.522;2023-02-15T20:31:52;27.45;;;13.80;;
58637;SDS011;54976;51.510;7.522;2023-02-15T20:34:53;30.02;;;14.02;;
58637;SDS011;54976;51.510;7.522;2023-02-15T20:37:54;29.45;;;13.93;;
58637;SDS011;54976;51.510;7.522;2023-02-15T20:40:58;26.27;;;12.97;;
58637;SDS011;54976;51.510;7.522;2023-02-15T20:44:20;29.55;;;15.40;;
58637;SDS011;54976;51.510;7.522;2023-02-15T20:47:28;23.02;;;12.52;;
58637;SDS011;54976;51.510;7.522;2023-02-15T20:50:30;24.77;;;12.82;;
58637;SDS011;54976;51.510;7.522;2023-02-15T20:53:31;29.98;;;15.30;;
58637;SDS011;54976;51.510;7.522;2023-02-15T20:56:32;27.05;;;13.68;;
58637;SDS011;54976;51.510;7.522;2023-02-15T20:59:33;24.52;;;13.13;;
58637;SDS011;54976;51.510;7.522;2023-02-15T21:02:40;32.47;;;14.38;;
58637;SDS011;54976;51.510;7.522;2023-02-15T21:05:41;36.55;;;15.75;;
58637;SDS011;54976;51.510;7.522;2023-02-15T21:08:44;32.88;;;15.45;;
58637;SDS011;54976;51.510;7.522;2023-02-15T21:11:51;35.28;;;15.55;;
58637;SDS011;54976;51.510;7.522;2023-02-15T21:14:53;26.48;;;14.45;;
58637;SDS011;54976;51.510;7.522;2023-02-15T21:17:55;29.10;;;13.88;;
58637;SDS011;54976;51.510;7.522;2023-02-15T21:21:01;27.35;;;14.18;;
58637;SDS011;54976;51.510;7.522;2023-02-15T21:24:04;28.38;;;13.48;;
58637;SDS011;54976;51.510;7.522;2023-02-15T21:27:08;26.13;;;13.85;;
58637;SDS011;54976;51.510;7.522;2023-02-15T21:30:15;25.98;;;12.63;;
58637;SDS011;54976;51.510;7.522;2023-02-15T21:33:17;24.85;;;13.55;;
58637;SDS011;54976;51.510;7.522;2023-02-15T21:36:19;27.88;;;13.88;;
58637;SDS011;54976;51.510;7.522;2023-02-15T21:39:23;31.08;;;14.65;;
58637;SDS011;54976;51.510;7.522;2023-02-15T21:42:26;28.00;;;14.75;;
58637;SDS011;54976;51.510;7.522;2023-02-15T21:45:45;28.58;;;13.85;;
58637;SDS011;54976;51.510;7.522;2023-02-15T21:49:14;35.58;;;14.63;;
58637;SDS011;54976;51.510;7.522;2023-02-15T21:52:15;27.20;;;13.88;;
58637;SDS011;54976;51.510;7.522;2023-02-15T21:55:19;29.17;;;13.50;;